Time;durP1;ratioP1;P1;durP2;ratioP2;P2;SDS_P1;SDS_P2;PMS_P1;PMS_P2;Temp;Humidity;BMP_temperature;BMP_pressure;BME280_temperature;BME280_humidity;BME280_pressure;Samples;Min_cycle;Max_cycle;Signal;HPM_P1;HPM_P2
2022/01/01 00:00:34;;;;;;;;;57.33;44.67;;;;;10.92;100.00;102268.91;5097382;27;45418;-80
2022/01/01 00:03:00;;;;;;;;;65.00;49.67;;;;;10.90;100.00;102273.44;5096925;27;45524;-82
2022/01/01 00:05:26;;;;;;;;;57.00;46.33;;;;;10.88;100.00;102278.84;5096894;27;44714;-81
2022/01/01 00:07:52;;;;;;;;;62.67;47.67;;;;;10.84;100.00;102273.72;5097460;27;44784;-81
2022/01/01 00:10:19;;;;;;;;;62.00;50.00;;;;;10.81;100.00;102274.72;5097551;27;45310;-81
2022/01/01 00:12:46;;;;;;;;;57.33;48.00;;;;;10.79;100.00;102280.09;5097452;27;45380;-81
2022/01/01 00:15:12;;;;;;;;;59.00;47.67;;;;;10.78;100.00;102285.47;5096127;27;45367;-80
2022/01/01 00:17:37;;;;;;;;;64.67;49.67;;;;;10.78;100.00;102288.13;5097144;27;45279;-81
2022/01/01 00:20:04;;;;;;;;;61.67;46.33;;;;;10.82;100.00;102279.09;5097421;27;45235;-81
2022/01/01 00:22:29;;;;;;;;;61.67;49.00;;;;;10.86;100.00;102275.38;5095948;27;45483;-82
2022/01/01 00:24:55;;;;;;;;;65.67;49.00;;;;;10.92;100.00;102287.53;5097058;27;44910;-81
2022/01/01 00:27:20;;;;;;;;;62.33;48.00;;;;;10.93;100.00;102282.16;5097528;27;45417;-82
2022/01/01 00:29:45;;;;;;;;;64.33;50.00;;;;;10.94;100.00;102280.38;5097285;27;44735;-82
2022/01/01 00:32:11;;;;;;;;;63.00;49.67;;;;;10.96;100.00;102271.38;5096912;27;45227;-81
2022/01/01 00:34:36;;;;;;;;;63.33;47.33;;;;;10.99;100.00;102275.72;5099561;27;45353;-81
2022/01/01 00:37:04;;;;;;;;;63.67;49.67;;;;;11.01;100.00;102274.69;5102825;27;44811;-81
2022/01/01 00:39:29;;;;;;;;;63.33;51.00;;;;;11.04;100.00;102265.72;5102190;27;45327;-81
2022/01/01 00:41:54;;;;;;;;;62.67;49.33;;;;;11.09;100.00;102265.53;5096023;27;45710;-81
2022/01/01 00:44:20;;;;;;;;;64.33;49.00;;;;;11.10;100.00;102264.59;5097469;27;44785;-81
2022/01/01 00:46:45;;;;;;;;;57.33;46.67;;;;;11.14;100.00;102277.69;5096914;27;44856;-81
2022/01/01 00:49:10;;;;;;;;;62.33;49.33;;;;;11.16;100.00;102273.16;5097115;27;45309;-80
2022/01/01 00:51:36;;;;;;;;;62.00;47.00;;;;;11.17;100.00;102282.88;5096918;27;45334;-81
2022/01/01 00:54:01;;;;;;;;;57.67;45.67;;;;;11.19;100.00;102281.00;5097143;27;44765;-81
2022/01/01 00:56:27;;;;;;;;;60.67;48.00;;;;;11.18;100.00;102281.06;5096848;27;45398;-81
2022/01/01 00:58:52;;;;;;;;;61.67;47.33;;;;;11.21;100.00;102287.09;5096718;27;44973;-81
2022/01/01 01:01:17;;;;;;;;;57.33;46.33;;;;;11.25;100.00;102280.72;5096065;27;45344;-80
2022/01/01 01:03:43;;;;;;;;;56.00;44.00;;;;;11.26;100.00;102281.56;5096801;27;45286;-81
2022/01/01 01:06:10;;;;;;;;;56.00;45.67;;;;;11.30;100.00;102284.03;5096736;27;45125;-80
2022/01/01 01:08:36;;;;;;;;;55.67;43.67;;;;;11.30;100.00;102276.03;5097624;27;44879;-80
2022/01/01 01:11:03;;;;;;;;;59.00;46.33;;;;;11.32;100.00;102266.22;5098211;27;45456;-82
2022/01/01 01:13:31;;;;;;;;;58.00;45.00;;;;;11.35;100.00;102267.00;5097375;27;45223;-81
2022/01/01 01:15:57;;;;;;;;;55.00;43.00;;;;;11.32;100.00;102274.19;5096413;27;45361;-81
2022/01/01 01:18:22;;;;;;;;;56.33;44.33;;;;;11.30;100.00;102275.19;5100368;27;45307;-83
2022/01/01 01:20:48;;;;;;;;;50.33;39.33;;;;;11.28;100.00;102280.59;5100321;27;45527;-83
2022/01/01 01:23:13;;;;;;;;;53.67;43.33;;;;;11.30;100.00;102273.38;5100263;27;44778;-83
2022/01/01 01:25:42;;;;;;;;;54.33;44.67;;;;;11.32;100.00;102268.03;5100810;27;45287;-83
2022/01/01 01:28:08;;;;;;;;;53.00;44.00;;;;;11.28;100.00;102266.44;5102055;27;45406;-83
2022/01/01 01:30:35;;;;;;;;;53.33;44.00;;;;;11.27;100.00;102268.22;5100148;27;45134;-82
2022/01/01 01:33:01;;;;;;;;;52.67;41.33;;;;;11.30;100.00;102270.72;5100579;27;45660;-83
2022/01/01 01:35:27;;;;;;;;;54.00;44.00;;;;;11.31;100.00;102266.28;5102337;27;44773;-82
2022/01/01 01:37:53;;;;;;;;;59.33;46.33;;;;;11.32;100.00;102260.03;5105220;27;45558;-81
2022/01/01 01:40:18;;;;;;;;;55.33;44.00;;;;;11.30;100.00;102253.91;5102596;27;45303;-81
2022/01/01 01:42:45;;;;;;;;;51.33;43.33;;;;;11.27;100.00;102262.91;5100203;27;44923;-81
2022/01/01 01:45:15;;;;;;;;;60.33;49.33;;;;;11.26;100.00;102263.81;5099712;27;45373;-81
2022/01/01 01:47:41;;;;;;;;;61.67;47.67;;;;;11.26;100.00;102270.94;5099800;27;45274;-81
2022/01/01 01:50:10;;;;;;;;;62.67;50.00;;;;;11.25;100.00;102261.22;5099634;27;45225;-81
2022/01/01 01:52:37;;;;;;;;;67.33;51.00;;;;;11.21;100.00;102265.81;5099501;27;44695;-81
2022/01/01 01:55:09;;;;;;;;;65.67;52.33;;;;;11.19;100.00;102262.38;5098074;27;44674;-80
2022/01/01 01:57:36;;;;;;;;;67.67;52.33;;;;;11.16;100.00;102269.63;5098173;27;45417;-80
2022/01/01 02:00:07;;;;;;;;;66.33;52.00;;;;;11.12;100.00;102270.69;5099098;27;45429;-80
2022/01/01 02:02:33;;;;;;;;;66.00;52.33;;;;;11.07;100.00;102270.88;5099756;27;45167;-83
2022/01/01 02:04:58;;;;;;;;;70.33;52.33;;;;;11.03;100.00;102267.53;5099960;27;45282;-82
2022/01/01 02:07:25;;;;;;;;;67.33;52.67;;;;;11.01;100.00;102268.50;5100491;27;44808;-83
2022/01/01 02:09:50;;;;;;;;;64.00;47.00;;;;;10.97;100.00;102264.25;5099925;27;45260;-82
2022/01/01 02:12:16;;;;;;;;;60.67;48.33;;;;;10.95;100.00;102267.00;5099982;27;45228;-82
2022/01/01 02:17:29;;;;;;;;;59.33;48.00;;;;;10.88;100.00;102268.22;5099867;27;45258;-83
2022/01/01 02:20:00;;;;;;;;;59.33;48.33;;;;;10.85;100.00;102271.00;5098484;27;46877;-82
2022/01/01 02:22:45;;;;;;;;;62.67;48.00;;;;;10.79;100.00;102266.81;5099663;27;45291;-82
2022/01/01 02:25:11;;;;;;;;;59.67;48.00;;;;;10.74;100.00;102265.28;5098345;27;45561;-84
2022/01/01 02:27:37;;;;;;;;;60.67;48.33;;;;;10.67;100.00;102254.03;5098860;27;45405;-83
2022/01/01 02:30:08;;;;;;;;;64.00;49.00;;;;;10.62;100.00;102252.50;5099113;27;45551;-82
2022/01/01 02:32:34;;;;;;;;;61.67;48.00;;;;;10.55;100.00;102247.47;5098203;27;44694;-82
2022/01/01 02:34:59;;;;;;;;;62.67;49.33;;;;;10.51;100.00;102248.50;5099568;27;45232;-81
2022/01/01 02:37:25;;;;;;;;;61.00;49.00;;;;;10.48;100.00;102258.41;5104403;27;45169;-83
2022/01/01 02:39:50;;;;;;;;;69.33;53.33;;;;;10.42;100.00;102248.91;5105725;27;45336;-82
2022/01/01 02:42:20;;;;;;;;;68.33;53.00;;;;;10.37;100.00;102253.53;5103878;27;45211;-82
2022/01/01 02:44:45;;;;;;;;;65.33;52.33;;;;;10.36;100.00;102253.63;5099440;27;45504;-83
2022/01/01 02:47:11;;;;;;;;;62.67;49.33;;;;;10.33;100.00;102241.31;5099069;27;44938;-82
2022/01/01 02:49:37;;;;;;;;;67.00;50.67;;;;;10.32;100.00;102241.38;5097437;27;45301;-82
2022/01/01 02:52:02;;;;;;;;;65.33;50.67;;;;;10.28;100.00;102243.28;5099083;27;44771;-83
2022/01/01 02:54:28;;;;;;;;;56.33;44.33;;;;;10.23;100.00;102242.59;5098973;27;44811;-83
2022/01/01 02:56:53;;;;;;;;;59.33;48.00;;;;;10.20;100.00;102248.03;5097489;27;45464;-82
2022/01/01 02:59:19;;;;;;;;;59.00;47.67;;;;;10.15;100.00;102250.00;5099832;27;45455;-82
2022/01/01 03:01:44;;;;;;;;;59.00;46.00;;;;;10.15;100.00;102257.97;5099104;27;45466;-83
2022/01/01 03:04:10;;;;;;;;;59.00;46.00;;;;;10.12;100.00;102252.81;5099180;27;45479;-83
2022/01/01 03:06:35;;;;;;;;;57.67;45.00;;;;;10.10;100.00;102254.63;5099494;27;44878;-81
2022/01/01 03:09:01;;;;;;;;;55.33;45.33;;;;;10.09;100.00;102264.41;5098992;27;45268;-83
2022/01/01 03:11:26;;;;;;;;;55.33;43.67;;;;;10.08;100.00;102259.16;5098789;27;45382;-82
2022/01/01 03:13:51;;;;;;;;;49.33;39.33;;;;;10.08;100.00;102257.38;5099418;27;45322;-82
2022/01/01 03:16:17;;;;;;;;;51.33;42.67;;;;;10.07;100.00;102257.44;5098891;27;44966;-83
2022/01/01 03:18:42;;;;;;;;;56.00;42.67;;;;;10.07;100.00;102255.63;5098633;27;45314;-81
2022/01/01 03:21:08;;;;;;;;;48.00;41.00;;;;;10.10;100.00;102257.28;5098515;27;44797;-82
2022/01/01 03:23:34;;;;;;;;;51.33;39.00;;;;;10.13;100.00;102255.38;5099049;27;44698;-82
2022/01/01 03:25:59;;;;;;;;;51.67;39.67;;;;;10.15;100.00;102265.94;5098422;27;45378;-83
2022/01/01 03:28:25;;;;;;;;;52.33;42.67;;;;;10.17;100.00;102264.97;5098582;27;45280;-81
2022/01/01 03:30:53;;;;;;;;;54.33;40.00;;;;;10.18;100.00;102260.50;5100790;27;44809;-83
2022/01/01 03:33:19;;;;;;;;;49.00;40.33;;;;;10.23;100.00;102259.38;5102995;27;44781;-82
2022/01/01 03:35:47;;;;;;;;;48.67;40.67;;;;;10.24;100.00;102263.78;5100011;27;44775;-82
2022/01/01 03:38:12;;;;;;;;;46.33;39.67;;;;;10.28;100.00;102269.84;5101531;27;45283;-82
2022/01/01 03:40:38;;;;;;;;;49.00;41.00;;;;;10.31;100.00;102259.13;5102985;27;45405;-83
2022/01/01 03:43:03;;;;;;;;;46.00;39.00;;;;;10.34;100.00;102251.00;5103549;27;45100;-82
2022/01/01 03:45:28;;;;;;;;;43.33;38.33;;;;;10.37;100.00;102250.03;5100462;27;45538;-82
2022/01/01 03:47:54;;;;;;;;;43.33;35.00;;;;;10.36;100.00;102243.84;5098519;27;45116;-83
2022/01/01 03:50:19;;;;;;;;;45.00;38.00;;;;;10.39;100.00;102235.72;5098347;27;45249;-83
2022/01/01 03:52:45;;;;;;;;;41.33;33.00;;;;;10.38;100.00;102234.00;5097501;27;44768;-82
2022/01/01 03:55:12;;;;;;;;;46.00;36.00;;;;;10.38;100.00;102241.13;5097775;27;45428;-82
2022/01/01 03:57:38;;;;;;;;;37.67;33.67;;;;;10.36;100.00;102235.03;5096777;27;46862;-83
2022/01/01 04:00:06;;;;;;;;;46.33;34.33;;;;;10.37;100.00;102242.91;5097967;27;45377;-82
2022/01/01 04:02:32;;;;;;;;;36.67;33.00;;;;;10.37;100.00;102239.41;5098234;27;44748;-83
2022/01/01 04:04:57;;;;;;;;;38.75;34.00;;;;;10.36;100.00;102251.81;5097981;27;45365;-82
2022/01/01 04:07:23;;;;;;;;;40.67;34.00;;;;;10.34;100.00;102248.34;5096557;27;45276;-82
2022/01/01 04:09:48;;;;;;;;;35.67;31.67;;;;;10.33;100.00;102238.66;5097757;27;45247;-81
2022/01/01 04:12:13;;;;;;;;;35.00;31.00;;;;;10.33;100.00;102236.00;5097863;27;45036;-81
2022/01/01 04:14:39;;;;;;;;;33.67;31.00;;;;;10.32;100.00;102236.06;5098445;27;44831;-81
2022/01/01 04:17:04;;;;;;;;;34.00;32.33;;;;;10.32;100.00;102239.59;5097927;27;45412;-82
2022/01/01 04:19:39;;;;;;;;;39.33;32.67;;;;;10.32;100.00;102244.03;5097280;27;44715;-82
2022/01/01 04:22:06;;;;;;;;;35.75;29.25;;;;;10.32;100.00;102241.38;5097909;27;45419;-82
2022/01/01 04:24:32;;;;;;;;;33.00;32.00;;;;;10.30;100.00;102236.16;5097265;27;44995;-82
2022/01/01 04:26:57;;;;;;;;;36.00;32.00;;;;;10.29;100.00;102235.25;5096618;27;45493;-82
2022/01/01 04:29:23;;;;;;;;;34.75;31.25;;;;;10.29;100.00;102237.91;5097724;27;45477;-82
2022/01/01 04:31:49;;;;;;;;;32.25;29.00;;;;;10.26;100.00;102234.53;5097401;27;44866;-80
2022/01/01 04:34:15;;;;;;;;;40.25;32.00;;;;;10.25;100.00;102230.13;5097648;27;44927;-82
2022/01/01 04:36:48;;;;;;;;;37.50;33.25;;;;;10.24;100.00;102226.63;5103058;27;45405;-81
2022/01/01 04:39:13;;;;;;;;;32.50;30.75;;;;;10.24;100.00;102233.72;5100809;27;44717;-82
2022/01/01 04:41:40;;;;;;;;;37.00;32.00;;;;;10.21;100.00;102229.38;5101577;27;45306;-81
2022/01/01 04:44:05;;;;;;;;;39.67;32.67;;;;;10.17;100.00;102230.44;5102653;27;45288;-82
2022/01/01 04:46:31;;;;;;;;;34.33;33.00;;;;;10.14;100.00;102230.56;5096615;27;45477;-83
2022/01/01 04:48:56;;;;;;;;;41.33;34.00;;;;;10.12;100.00;102224.44;5098498;27;45215;-80
2022/01/01 04:51:21;;;;;;;;;40.00;33.75;;;;;10.09;100.00;102232.53;5096784;27;45156;-82
2022/01/01 04:53:47;;;;;;;;;43.67;34.67;;;;;10.06;100.00;102222.06;5096488;27;44603;-80
2022/01/01 04:56:18;;;;;;;;;34.67;30.00;;;;;10.02;100.00;102231.06;5097231;27;45109;-81
2022/01/01 04:58:43;;;;;;;;;35.00;33.00;;;;;9.98;100.00;102227.66;5095696;27;45450;-79
2022/01/01 05:01:09;;;;;;;;;35.67;31.33;;;;;9.95;100.00;102222.47;5096725;27;45451;-80
2022/01/01 05:03:35;;;;;;;;;31.00;31.00;;;;;9.93;100.00;102224.34;5096730;27;45327;-80
2022/01/01 05:06:01;;;;;;;;;35.00;33.00;;;;;9.93;100.00;102221.69;5096837;27;45235;-80
2022/01/01 05:08:26;;;;;;;;;40.67;33.00;;;;;9.91;100.00;102235.91;5096205;27;45406;-80
2022/01/01 05:10:52;;;;;;;;;44.33;34.67;;;;;9.93;100.00;102234.94;5096848;27;44809;-82
2022/01/01 05:13:19;;;;;;;;;37.00;32.00;;;;;9.93;100.00;102242.06;5095312;27;45593;-80
2022/01/01 05:15:45;;;;;;;;;30.75;29.25;;;;;9.92;100.00;102241.19;5096358;27;45444;-80
2022/01/01 05:18:10;;;;;;;;;39.75;32.00;;;;;9.93;100.00;102242.91;5096550;27;45683;-80
2022/01/01 05:20:36;;;;;;;;;38.67;34.00;;;;;9.93;100.00;102240.25;5096391;27;44793;-80
2022/01/01 05:23:01;;;;;;;;;38.00;34.00;;;;;9.93;100.00;102239.41;5096053;27;45416;-80
2022/01/01 05:25:28;;;;;;;;;34.50;31.50;;;;;9.95;100.00;102243.69;5096360;27;45013;-81
2022/01/01 05:27:53;;;;;;;;;44.00;36.00;;;;;9.93;100.00;102234.94;5096364;27;44888;-80
2022/01/01 05:30:18;;;;;;;;;41.00;35.75;;;;;9.95;100.00;102226.91;5096402;27;45265;-80
2022/01/01 05:32:43;;;;;;;;;40.50;33.00;;;;;9.95;100.00;102238.41;5096398;27;44827;-80
2022/01/01 05:35:09;;;;;;;;;37.50;34.00;;;;;9.94;100.00;102238.47;5096241;27;45273;-81
2022/01/01 05:37:35;;;;;;;;;30.75;29.25;;;;;9.93;100.00;102234.94;5096104;27;44784;-80
2022/01/01 05:40:00;;;;;;;;;30.75;28.50;;;;;9.95;100.00;102225.13;5099669;27;45241;-80
2022/01/01 05:42:26;;;;;;;;;31.25;30.00;;;;;9.94;100.00;102220.75;5101198;27;45292;-79
2022/01/01 05:44:51;;;;;;;;;36.75;30.50;;;;;9.93;100.00;102213.72;5099702;27;45377;-80
2022/01/01 05:47:17;;;;;;;;;42.67;34.67;;;;;9.92;100.00;102214.66;5096156;27;45324;-80
2022/01/01 05:49:42;;;;;;;;;27.50;26.50;;;;;9.89;100.00;102214.75;5096171;27;45098;-80
2022/01/01 05:52:08;;;;;;;;;32.75;30.00;;;;;9.88;100.00;102207.72;5096718;27;45416;-82
2022/01/01 05:54:34;;;;;;;;;33.25;31.00;;;;;9.86;100.00;102212.22;5102095;27;46212;-82
2022/01/01 05:57:00;;;;;;;;;31.00;26.75;;;;;9.83;100.00;102216.81;5098259;27;44751;-82
2022/01/01 05:59:26;;;;;;;;;30.25;30.25;;;;;9.81;100.00;102216.84;5096503;27;45427;-81
2022/01/01 06:01:51;;;;;;;;;32.25;28.75;;;;;9.78;100.00;102211.69;5096165;27;45420;-83
2022/01/01 06:04:16;;;;;;;;;31.75;30.25;;;;;9.79;100.00;102213.41;5098159;27;45523;-80
2022/01/01 06:06:42;;;;;;;;;33.00;25.00;;;;;9.77;100.00;102208.16;5098869;27;45360;-80
2022/01/01 06:09:07;;;;;;;;;34.00;30.50;;;;;9.74;100.00;102202.97;5099381;27;45481;-80
2022/01/01 06:11:32;;;;;;;;;30.00;28.25;;;;;9.73;100.00;102209.22;5099249;27;45351;-80
2022/01/01 06:13:58;;;;;;;;;31.75;29.25;;;;;9.71;100.00;102211.03;5099298;27;45451;-83
2022/01/01 06:16:23;;;;;;;;;32.75;27.50;;;;;9.70;100.00;102203.16;5097879;27;45453;-80
2022/01/01 06:18:48;;;;;;;;;27.50;24.50;;;;;9.70;100.00;102201.34;5099444;27;44794;-80
2022/01/01 06:21:14;;;;;;;;;30.50;28.50;;;;;9.69;100.00;102206.72;5097342;27;44787;-80
2022/01/01 06:23:40;;;;;;;;;32.00;28.75;;;;;9.65;100.00;102219.25;5097359;27;46593;-80
2022/01/01 06:26:05;;;;;;;;;21.50;18.50;;;;;9.61;100.00;102214.13;5099163;27;45313;-79
2022/01/01 06:28:31;;;;;;;;;30.00;28.50;;;;;9.59;100.00;102218.63;5098988;27;45476;-80
2022/01/01 06:30:56;;;;;;;;;28.25;25.25;;;;;9.55;100.00;102209.06;5099254;27;44777;-80
2022/01/01 06:33:22;;;;;;;;;27.25;26.50;;;;;9.51;100.00;102209.19;5098894;27;45200;-82
2022/01/01 06:35:48;;;;;;;;;30.25;26.75;;;;;9.53;100.00;102211.78;5098288;27;45391;-80
2022/01/01 06:38:15;;;;;;;;;30.75;26.75;;;;;9.52;100.00;102212.69;5099164;27;45357;-80
2022/01/01 06:40:42;;;;;;;;;26.25;22.75;;;;;9.51;100.00;102211.81;5098872;27;44790;-81
2022/01/01 06:43:10;;;;;;;;;25.00;24.75;;;;;9.50;100.00;102211.91;5101056;27;46074;-80
2022/01/01 06:45:35;;;;;;;;;26.00;26.00;;;;;9.46;100.00;102205.84;5099508;27;45738;-78
2022/01/01 06:48:01;;;;;;;;;17.25;15.50;;;;;9.47;100.00;102204.03;5099395;27;45271;-80
2022/01/01 06:50:27;;;;;;;;;25.75;24.25;;;;;9.39;100.00;102203.50;5099037;27;45247;-80
2022/01/01 06:52:52;;;;;;;;;24.25;23.25;;;;;9.33;100.00;102206.34;5097409;27;46993;-80
2022/01/01 06:55:18;;;;;;;;;25.25;24.25;;;;;9.29;100.00;102207.44;5098827;27;45476;-80
2022/01/01 06:57:44;;;;;;;;;25.25;18.75;;;;;9.28;100.00;102203.88;5098690;27;45240;-81
2022/01/01 07:00:11;;;;;;;;;24.75;23.25;;;;;9.26;100.00;102205.75;5099346;27;45366;-84
2022/01/01 07:02:39;;;;;;;;;25.25;23.25;;;;;9.24;100.00;102202.28;5106931;27;45364;-82
2022/01/01 07:05:05;;;;;;;;;21.25;21.00;;;;;9.22;100.00;102197.03;5115137;27;45295;-82
2022/01/01 07:07:31;;;;;;;;;28.50;24.25;;;;;9.22;100.00;102194.38;5113063;27;45349;-83
2022/01/01 07:09:56;;;;;;;;;25.50;23.75;;;;;9.19;100.00;102193.66;5111771;27;45306;-82
2022/01/01 07:12:21;;;;;;;;;25.25;22.50;;;;;9.17;100.00;102198.13;5103466;27;45186;-83
2022/01/01 07:14:47;;;;;;;;;20.50;20.50;;;;;9.12;100.00;102203.59;5098363;27;45261;-83
2022/01/01 07:17:12;;;;;;;;;20.00;19.00;;;;;9.12;100.00;102202.75;5096816;27;45432;-81
2022/01/01 07:19:38;;;;;;;;;19.00;18.25;;;;;9.12;100.00;102208.91;5098424;27;45340;-83
2022/01/01 07:22:03;;;;;;;;;26.25;18.25;;;;;9.10;100.00;102202.81;5096994;27;46282;-82
2022/01/01 07:24:28;;;;;;;;;22.00;21.00;;;;;9.07;100.00;102200.25;5099077;27;44765;-84
2022/01/01 07:26:54;;;;;;;;;22.50;20.50;;;;;9.05;100.00;102209.22;5101086;27;44859;-82
2022/01/01 07:29:19;;;;;;;;;18.50;13.50;;;;;9.00;100.00;102199.63;5100838;27;44741;-82
2022/01/01 07:31:45;;;;;;;;;24.75;20.50;;;;;9.04;100.00;102205.66;5098728;27;45129;-81
2022/01/01 07:34:10;;;;;;;;;23.50;23.50;;;;;9.00;100.00;102202.28;5098496;27;45287;-83
2022/01/01 07:36:36;;;;;;;;;18.00;18.00;;;;;9.00;100.00;102204.94;5098362;27;44818;-83
2022/01/01 07:39:01;;;;;;;;;26.00;24.50;;;;;8.99;100.00;102202.31;5098422;27;45411;-82
2022/01/01 07:41:27;;;;;;;;;20.00;17.50;;;;;8.97;100.00;102212.13;5100186;27;45334;-83
2022/01/01 07:43:52;;;;;;;;;27.50;20.00;;;;;8.94;100.00;102207.78;5103591;27;44738;-82
2022/01/01 07:46:17;;;;;;;;;21.00;21.00;;;;;8.93;100.00;102216.66;5103941;27;45362;-82
2022/01/01 07:48:43;;;;;;;;;25.00;20.25;;;;;8.92;100.00;102208.78;5096876;27;45359;-82
2022/01/01 07:51:08;;;;;;;;;25.50;21.50;;;;;8.94;100.00;102206.94;5097771;27;45462;-82
2022/01/01 07:53:34;;;;;;;;;25.75;25.25;;;;;8.92;100.00;102209.63;5097979;27;45389;-83
2022/01/01 07:55:59;;;;;;;;;23.50;23.25;;;;;8.93;100.00;102208.72;5097583;27;45464;-82
2022/01/01 07:58:24;;;;;;;;;25.50;21.50;;;;;8.95;100.00;102208.69;5098559;27;44761;-82
2022/01/01 08:00:51;;;;;;;;;21.25;20.50;;;;;8.98;100.00;102211.19;5098210;27;45350;-82
2022/01/01 08:03:16;;;;;;;;;22.75;21.75;;;;;8.99;100.00;102211.16;5098777;27;44675;-83
2022/01/01 08:05:41;;;;;;;;;23.00;22.25;;;;;9.04;100.00;102218.06;5098070;27;44887;-82
2022/01/01 08:08:07;;;;;;;;;22.75;19.50;;;;;9.06;100.00;102217.09;5097596;27;44817;-83
2022/01/01 08:10:34;;;;;;;;;24.00;22.25;;;;;9.08;100.00;102220.53;5097490;27;45002;-83
2022/01/01 08:13:00;;;;;;;;;29.25;24.25;;;;;9.08;100.00;102215.25;5097740;27;45169;-83
2022/01/01 08:15:26;;;;;;;;;29.50;23.75;;;;;9.08;100.00;102207.28;5102484;27;44783;-84
2022/01/01 08:17:51;;;;;;;;;26.50;21.75;;;;;9.09;100.00;102216.09;5100134;27;44859;-82
2022/01/01 08:20:16;;;;;;;;;28.50;25.00;;;;;9.12;100.00;102208.91;5098317;27;45086;-83
2022/01/01 08:22:42;;;;;;;;;23.25;21.00;;;;;9.13;100.00;102207.97;5097521;27;45460;-84
2022/01/01 08:25:08;;;;;;;;;26.50;26.50;;;;;9.14;100.00;102200.91;5097549;27;44876;-83
2022/01/01 08:27:34;;;;;;;;;24.25;21.75;;;;;9.17;100.00;102195.47;5096836;27;45510;-84
2022/01/01 08:30:00;;;;;;;;;26.00;25.50;;;;;9.17;100.00;102188.38;5095184;27;46496;-84
2022/01/01 08:32:25;;;;;;;;;25.00;23.50;;;;;9.17;100.00;102180.44;5097011;27;45455;-83
2022/01/01 08:34:52;;;;;;;;;24.75;21.50;;;;;9.16;100.00;102185.81;5097076;27;44949;-83
2022/01/01 08:37:17;;;;;;;;;24.50;21.50;;;;;9.13;100.00;102194.72;5097239;27;45546;-81
2022/01/01 08:39:43;;;;;;;;;28.50;23.25;;;;;9.11;100.00;102193.06;5096704;27;45165;-81
2022/01/01 08:42:09;;;;;;;;;23.25;18.75;;;;;9.10;100.00;102194.00;5099826;27;44788;-81
2022/01/01 08:44:35;;;;;;;;;26.50;23.25;;;;;9.07;100.00;102191.44;5102027;27;44708;-82
2022/01/01 08:47:00;;;;;;;;;29.75;23.00;;;;;9.06;100.00;102192.38;5101057;27;45540;-82
2022/01/01 08:49:26;;;;;;;;;24.00;21.75;;;;;9.08;100.00;102195.81;5096485;27;45377;-82
2022/01/01 08:51:55;;;;;;;;;24.50;21.50;;;;;9.10;100.00;102192.22;5096879;27;45386;-80
2022/01/01 08:54:20;;;;;;;;;27.00;24.50;;;;;9.11;100.00;102185.97;5096998;27;44805;-83
2022/01/01 08:56:46;;;;;;;;;27.50;24.75;;;;;9.14;100.00;102187.66;5096945;27;45281;-83
2022/01/01 08:59:11;;;;;;;;;24.25;23.75;;;;;9.17;100.00;102187.53;5096315;27;45271;-82
2022/01/01 09:01:37;;;;;;;;;32.75;26.00;;;;;9.20;100.00;102187.41;5096820;27;45255;-83
2022/01/01 09:04:04;;;;;;;;;23.25;22.00;;;;;9.23;100.00;102180.22;5095849;27;45394;-83
2022/01/01 09:06:29;;;;;;;;;24.25;23.00;;;;;9.27;100.00;102175.63;5096640;27;44939;-84
2022/01/01 09:08:55;;;;;;;;;28.50;22.25;;;;;9.30;100.00;102185.28;5096474;27;45335;-84
2022/01/01 09:11:20;;;;;;;;;25.50;24.25;;;;;9.35;100.00;102189.47;5096941;27;45274;-84
2022/01/01 09:13:46;;;;;;;;;22.25;22.25;;;;;9.40;100.00;102197.25;5095886;27;44804;-83
2022/01/01 09:16:14;;;;;;;;;26.25;23.50;;;;;9.46;100.00;102197.88;5096658;27;45458;-81
2022/01/01 09:18:41;;;;;;;;;27.75;22.50;;;;;9.51;100.00;102185.28;5096388;27;46745;-83
2022/01/01 09:21:08;;;;;;;;;21.50;20.50;;;;;9.59;100.00;102177.06;5096168;27;44782;-82
2022/01/01 09:23:34;;;;;;;;;23.75;23.00;;;;;9.69;100.00;102167.78;5096604;27;45326;-82
2022/01/01 09:26:03;;;;;;;;;20.75;20.25;;;;;9.74;100.00;102168.47;5095082;27;45271;-82
2022/01/01 09:28:30;;;;;;;;;23.00;23.00;;;;;9.82;100.00;102167.31;5095757;27;45315;-82
2022/01/01 09:30:57;;;;;;;;;24.50;19.50;;;;;9.86;100.00;102164.44;5094588;27;45421;-81
2022/01/01 09:33:25;;;;;;;;;25.75;23.25;;;;;9.89;100.00;102155.50;5096452;27;45279;-82
2022/01/01 09:35:50;;;;;;;;;24.25;21.75;;;;;9.95;100.00;102157.91;5096393;27;44910;-82
2022/01/01 09:38:15;;;;;;;;;24.00;20.25;;;;;9.96;100.00;102143.69;5098433;27;45432;-83
2022/01/01 09:40:41;;;;;;;;;22.75;19.00;;;;;9.97;100.00;102140.13;5101021;27;44792;-84
2022/01/01 09:43:10;;;;;;;;;22.75;20.50;;;;;9.99;100.00;102136.47;5102768;27;44931;-81
2022/01/01 09:45:35;;;;;;;;;23.75;20.00;;;;;9.98;100.00;102128.56;5104362;27;45243;-81
2022/01/01 09:48:03;;;;;;;;;25.50;20.25;;;;;9.99;100.00;102132.94;5103628;27;45597;-84
2022/01/01 09:50:29;;;;;;;;;21.50;18.50;;;;;10.00;100.00;102132.88;5103132;27;44646;-85
2022/01/01 09:52:54;;;;;;;;;20.50;20.50;;;;;10.01;100.00;102137.28;5102850;27;45385;-85
2022/01/01 09:55:20;;;;;;;;;15.50;14.50;;;;;10.06;100.00;102142.41;5101148;27;45307;-84
2022/01/01 09:57:47;;;;;;;;;20.00;17.75;;;;;10.11;100.00;102139.56;5098619;27;46666;-85
2022/01/01 10:00:13;;;;;;;;;22.25;19.00;;;;;10.16;100.00;102127.81;5098830;27;44837;-84
2022/01/01 10:02:39;;;;;;;;;21.00;17.25;;;;;10.25;100.00;102123.88;5100652;27;45297;-84
2022/01/01 10:05:06;;;;;;;;;18.25;18.25;;;;;10.33;100.00;102123.56;5098944;27;45650;-84
2022/01/01 10:07:31;;;;;;;;;14.25;12.75;;;;;10.40;100.00;102119.72;5100374;27;45306;-85
2022/01/01 10:09:57;;;;;;;;;19.00;17.25;;;;;10.47;100.00;102126.50;5099728;27;44841;-85
2022/01/01 10:12:40;;;;;;;;;13.50;12.50;;;;;10.54;100.00;102123.50;5099888;27;45189;-85
2022/01/01 10:15:06;;;;;;;;;17.75;16.00;;;;;10.60;100.00;102122.38;5099823;27;44803;-84
2022/01/01 10:17:32;;;;;;;;;16.75;16.25;;;;;10.66;100.00;102119.41;5099985;27;45602;-85
2022/01/01 10:19:57;;;;;;;;;19.00;19.00;;;;;10.76;100.00;102117.22;5099878;27;45314;-84
2022/01/01 10:22:24;;;;;;;;;17.50;15.75;;;;;10.86;100.00;102121.16;5099621;27;45674;-83
2022/01/01 10:28:03;;;;;;;;;21.75;19.25;;;;;10.95;100.00;102110.13;5099903;27;44850;-85
2022/01/01 10:30:28;;;;;;;;;21.50;20.50;;;;;10.97;100.00;102107.38;5099609;27;45295;-83
2022/01/01 10:33:17;;;;;;;;;23.50;20.25;;;;;10.99;100.00;102106.38;5100242;27;44688;-85
2022/01/01 10:35:44;;;;;;;;;17.50;14.75;;;;;11.07;100.00;102104.25;5101454;27;44725;-85
2022/01/01 10:38:14;;;;;;;;;15.50;14.25;;;;;11.14;100.00;102104.81;5095189;27;45428;-85
2022/01/01 10:40:40;;;;;;;;;22.00;19.25;;;;;11.26;100.00;102116.63;5079912;27;44738;-85
2022/01/01 10:43:06;;;;;;;;;21.00;18.25;;;;;11.32;100.00;102105.72;5081509;27;44847;-84
2022/01/01 10:45:36;;;;;;;;;19.75;19.00;;;;;11.42;100.00;102111.47;5084341;28;44875;-85
2022/01/01 10:48:18;;;;;;;;;17.25;16.50;;;;;11.49;100.00;102105.75;5082777;28;45740;-85
2022/01/01 10:50:49;;;;;;;;;21.60;20.40;;;;;11.57;100.00;102105.38;5081791;27;44811;-85
2022/01/01 10:53:19;;;;;;;;;19.25;18.25;;;;;11.65;100.00;102103.19;5082635;27;44802;-85
2022/01/01 10:55:48;;;;;;;;;14.50;14.50;;;;;11.75;100.00;102098.31;5080222;27;44820;-84
2022/01/01 10:58:20;;;;;;;;;19.25;17.00;;;;;11.85;100.00;102093.41;5060933;28;46719;-84
2022/01/01 11:00:46;;;;;;;;;21.00;20.40;;;;;11.89;100.00;102095.81;5077539;27;44764;-85
2022/01/01 11:03:17;;;;;;;;;22.00;20.75;;;;;11.95;100.00;102102.66;5078739;27;45173;-86
2022/01/01 11:05:44;;;;;;;;;21.00;18.75;;;;;12.02;100.00;102104.91;5078787;27;45352;-85